11:25
Airports
Links
Donate
Help keep this website running!
PayPal
Bitcoin
METAR
KBYG 111053Z AUTO 35007KT 10SM CLR 04/M13 A3034 RMK AO2 SLP271 T00441128
Current Weather Conditions at KBYG
VFR 10:53:00 11-12-17
Automated station, no observer
Altimeter:30.34 hg
Temp:4.4°c 39°f
Dew point:-12.8°c 10°f
Wind:7 knots, 8.1 mph, 4 m/s, from 350°
Visibility:10.0 statute miles
(CLR) Clear
Past METAR reports
VFR 09:53:00 11-12-17
Automated station, no observer
Altimeter:30.33 hg
Temp:5.0°c 41°f
Dew point:-12.8°c 10°f
Wind:9 knots, 10.4 mph, 5 m/s, from 330°
Visibility:10.0 statute miles
(CLR) Clear
KBYG 110953Z AUTO 33009KT 10SM CLR 05/M13 A3033 RMK AO2 SLP253 T00501128
VFR 08:53:00 11-12-17
Automated station, no observer
Altimeter:30.33 hg
Temp:6.7°c 43°f
Dew point:-14.4°cf
Wind:15 knots, 17.3 mph, 8 m/s, from 330°
Visibility:10.0 statute miles
(CLR) Clear
KBYG 110853Z AUTO 33015KT 10SM CLR 07/M14 A3033 RMK AO2 SLP251 T00671144 51009
VFR 07:53:00 11-12-17
Automated station, no observer
Altimeter:30.32 hg
Temp:7.2°c 45°f
Dew point:-14.4°cf
Wind:7 knots, 8.1 mph, 4 m/s, from 340°
Visibility:10.0 statute miles
(CLR) Clear
KBYG 110753Z AUTO 34007KT 10SM CLR 07/M14 A3032 RMK AO2 SLP245 T00721144
VFR 06:53:00 11-12-17
Automated station, no observer
Altimeter:30.32 hg
Temp:7.8°c 45°f
Dew point:-15.0°cf
Wind:10 knots, 11.5 mph, 5 m/s, from 320°
Visibility:10.0 statute miles
(CLR) Clear
KBYG 110653Z AUTO 32010KT 10SM CLR 08/M15 A3032 RMK AO2 SLP243 T00781150 401500000
VFR 05:53:00 11-12-17
Automated station, no observer
Altimeter:30.30 hg
Temp:5.6°c 41°f
Dew point:-13.3°cf
Wind:13 knots, 15 mph, 7 m/s, from 340°
Visibility:10.0 statute miles
(CLR) Clear
KBYG 110553Z AUTO 34013KT 10SM CLR 06/M13 A3030 RMK AO2 SLP244 T00561133 10106 20022 58001
TAF
No TAF for KBYG
Forecast at KBYG
No Forecast Reports for KBYG